sensor_id;sensor_type;location;lat;lon;timestamp;P1;durP1;ratioP1;P2;durP2;ratioP2
44462;SDS011;30170;52.190;8.702;2023-03-12T00:00:04;14.77;;;8.98;;
44462;SDS011;30170;52.190;8.702;2023-03-12T00:02:34;19.35;;;8.80;;
44462;SDS011;30170;52.190;8.702;2023-03-12T00:05:01;12.82;;;7.88;;
44462;SDS011;30170;52.190;8.702;2023-03-12T00:07:29;14.93;;;7.40;;
44462;SDS011;30170;52.190;8.702;2023-03-12T00:09:56;15.38;;;7.28;;
44462;SDS011;30170;52.190;8.702;2023-03-12T00:12:23;12.95;;;6.88;;
44462;SDS011;30170;52.190;8.702;2023-03-12T00:14:51;13.00;;;7.05;;
44462;SDS011;30170;52.190;8.702;2023-03-12T00:17:18;11.73;;;5.95;;
44462;SDS011;30170;52.190;8.702;2023-03-12T00:19:45;11.73;;;6.40;;
44462;SDS011;30170;52.190;8.702;2023-03-12T00:22:16;12.57;;;6.85;;
44462;SDS011;30170;52.190;8.702;2023-03-12T00:24:51;11.43;;;6.53;;
44462;SDS011;30170;52.190;8.702;2023-03-12T00:27:19;10.60;;;6.18;;
44462;SDS011;30170;52.190;8.702;2023-03-12T00:29:46;11.73;;;6.75;;
44462;SDS011;30170;52.190;8.702;2023-03-12T00:32:14;15.82;;;6.95;;
44462;SDS011;30170;52.190;8.702;2023-03-12T00:34:41;10.02;;;6.32;;
44462;SDS011;30170;52.190;8.702;2023-03-12T00:37:08;14.27;;;7.53;;
44462;SDS011;30170;52.190;8.702;2023-03-12T00:39:36;11.43;;;6.43;;
44462;SDS011;30170;52.190;8.702;2023-03-12T00:42:03;12.75;;;6.97;;
44462;SDS011;30170;52.190;8.702;2023-03-12T00:44:30;9.85;;;5.72;;
44462;SDS011;30170;52.190;8.702;2023-03-12T00:46:57;11.25;;;6.18;;
44462;SDS011;30170;52.190;8.702;2023-03-12T00:49:25;11.30;;;5.80;;
44462;SDS011;30170;52.190;8.702;2023-03-12T00:51:52;10.80;;;6.13;;
44462;SDS011;30170;52.190;8.702;2023-03-12T00:54:20;9.90;;;6.30;;
44462;SDS011;30170;52.190;8.702;2023-03-12T00:56:47;10.00;;;6.00;;
44462;SDS011;30170;52.190;8.702;2023-03-12T00:59:15;12.27;;;7.05;;
44462;SDS011;30170;52.190;8.702;2023-03-12T01:01:42;9.93;;;6.32;;
44462;SDS011;30170;52.190;8.702;2023-03-12T01:04:10;9.68;;;5.88;;
44462;SDS011;30170;52.190;8.702;2023-03-12T01:06:37;9.73;;;6.07;;
44462;SDS011;30170;52.190;8.702;2023-03-12T01:09:05;10.23;;;5.88;;
44462;SDS011;30170;52.190;8.702;2023-03-12T01:11:33;12.07;;;5.85;;
44462;SDS011;30170;52.190;8.702;2023-03-12T01:14:01;12.80;;;6.30;;
44462;SDS011;30170;52.190;8.702;2023-03-12T01:16:29;11.73;;;6.88;;
44462;SDS011;30170;52.190;8.702;2023-03-12T01:18:56;14.10;;;7.50;;
44462;SDS011;30170;52.190;8.702;2023-03-12T01:21:24;14.27;;;7.55;;
44462;SDS011;30170;52.190;8.702;2023-03-12T01:23:51;15.77;;;8.10;;
44462;SDS011;30170;52.190;8.702;2023-03-12T01:26:18;12.75;;;7.63;;
44462;SDS011;30170;52.190;8.702;2023-03-12T01:28:46;13.82;;;8.25;;
44462;SDS011;30170;52.190;8.702;2023-03-12T01:31:14;14.73;;;8.60;;
44462;SDS011;30170;52.190;8.702;2023-03-12T01:33:43;16.92;;;8.27;;
44462;SDS011;30170;52.190;8.702;2023-03-12T01:36:28;13.38;;;7.68;;
44462;SDS011;30170;52.190;8.702;2023-03-12T01:38:57;13.52;;;6.85;;
44462;SDS011;30170;52.190;8.702;2023-03-12T01:41:25;12.57;;;6.75;;
44462;SDS011;30170;52.190;8.702;2023-03-12T01:43:53;14.07;;;7.30;;
44462;SDS011;30170;52.190;8.702;2023-03-12T01:48:55;10.10;;;6.20;;
44462;SDS011;30170;52.190;8.702;2023-03-12T01:51:27;11.95;;;7.72;;
44462;SDS011;30170;52.190;8.702;2023-03-12T01:53:57;13.90;;;7.00;;
44462;SDS011;30170;52.190;8.702;2023-03-12T01:56:26;11.60;;;6.38;;
44462;SDS011;30170;52.190;8.702;2023-03-12T01:58:55;13.10;;;6.93;;
44462;SDS011;30170;52.190;8.702;2023-03-12T02:01:23;9.73;;;6.35;;
44462;SDS011;30170;52.190;8.702;2023-03-12T02:03:51;9.52;;;6.63;;
44462;SDS011;30170;52.190;8.702;2023-03-12T02:07:06;13.15;;;7.35;;
44462;SDS011;30170;52.190;8.702;2023-03-12T02:09:09;14.10;;;6.90;;
44462;SDS011;30170;52.190;8.702;2023-03-12T02:11:37;14.70;;;7.53;;
44462;SDS011;30170;52.190;8.702;2023-03-12T02:14:05;12.02;;;6.57;;
44462;SDS011;30170;52.190;8.702;2023-03-12T02:16:32;17.92;;;9.73;;
44462;SDS011;30170;52.190;8.702;2023-03-12T02:19:00;14.93;;;8.10;;
44462;SDS011;30170;52.190;8.702;2023-03-12T02:21:28;11.43;;;7.45;;
44462;SDS011;30170;52.190;8.702;2023-03-12T02:24:05;18.35;;;8.77;;
44462;SDS011;30170;52.190;8.702;2023-03-12T02:26:33;14.57;;;6.85;;
44462;SDS011;30170;52.190;8.702;2023-03-12T02:29:01;11.98;;;7.35;;
44462;SDS011;30170;52.190;8.702;2023-03-12T02:31:31;11.40;;;7.07;;
44462;SDS011;30170;52.190;8.702;2023-03-12T02:33:59;15.30;;;8.40;;
44462;SDS011;30170;52.190;8.702;2023-03-12T02:36:27;11.77;;;8.45;;
44462;SDS011;30170;52.190;8.702;2023-03-12T02:38:54;13.82;;;9.00;;
44462;SDS011;30170;52.190;8.702;2023-03-12T02:43:51;13.45;;;8.20;;
44462;SDS011;30170;52.190;8.702;2023-03-12T02:46:22;16.10;;;9.77;;
44462;SDS011;30170;52.190;8.702;2023-03-12T02:48:50;18.95;;;9.85;;
44462;SDS011;30170;52.190;8.702;2023-03-12T02:51:18;15.98;;;8.98;;
44462;SDS011;30170;52.190;8.702;2023-03-12T02:53:45;14.10;;;9.63;;
44462;SDS011;30170;52.190;8.702;2023-03-12T02:56:15;15.75;;;9.63;;
44462;SDS011;30170;52.190;8.702;2023-03-12T02:58:42;18.08;;;8.73;;
44462;SDS011;30170;52.190;8.702;2023-03-12T03:01:10;17.30;;;9.77;;
44462;SDS011;30170;52.190;8.702;2023-03-12T03:03:37;14.25;;;9.13;;
44462;SDS011;30170;52.190;8.702;2023-03-12T03:06:05;15.55;;;9.98;;
44462;SDS011;30170;52.190;8.702;2023-03-12T03:08:32;18.08;;;10.05;;
44462;SDS011;30170;52.190;8.702;2023-03-12T03:10:59;15.98;;;9.85;;
44462;SDS011;30170;52.190;8.702;2023-03-12T03:13:28;17.70;;;9.35;;
44462;SDS011;30170;52.190;8.702;2023-03-12T03:15:57;16.15;;;9.60;;
44462;SDS011;30170;52.190;8.702;2023-03-12T03:18:29;15.32;;;9.20;;
44462;SDS011;30170;52.190;8.702;2023-03-12T03:21:02;13.40;;;9.43;;
44462;SDS011;30170;52.190;8.702;2023-03-12T03:23:30;20.25;;;11.43;;
44462;SDS011;30170;52.190;8.702;2023-03-12T03:25:57;16.70;;;10.18;;
44462;SDS011;30170;52.190;8.702;2023-03-12T03:28:26;16.92;;;9.73;;
44462;SDS011;30170;52.190;8.702;2023-03-12T03:30:54;18.50;;;11.38;;
44462;SDS011;30170;52.190;8.702;2023-03-12T03:33:27;18.00;;;10.45;;
44462;SDS011;30170;52.190;8.702;2023-03-12T03:35:55;18.25;;;10.38;;
44462;SDS011;30170;52.190;8.702;2023-03-12T03:38:25;19.40;;;11.40;;
44462;SDS011;30170;52.190;8.702;2023-03-12T03:40:54;21.95;;;10.43;;
44462;SDS011;30170;52.190;8.702;2023-03-12T03:43:21;17.80;;;11.43;;
44462;SDS011;30170;52.190;8.702;2023-03-12T03:46:02;20.95;;;11.23;;
44462;SDS011;30170;52.190;8.702;2023-03-12T03:48:30;16.42;;;9.90;;
44462;SDS011;30170;52.190;8.702;2023-03-12T03:50:59;13.80;;;9.88;;
44462;SDS011;30170;52.190;8.702;2023-03-12T03:53:27;12.60;;;7.75;;
44462;SDS011;30170;52.190;8.702;2023-03-12T03:55:54;11.35;;;7.45;;
44462;SDS011;30170;52.190;8.702;2023-03-12T03:58:21;14.50;;;7.13;;
44462;SDS011;30170;52.190;8.702;2023-03-12T04:00:49;13.38;;;6.82;;
44462;SDS011;30170;52.190;8.702;2023-03-12T04:03:16;15.85;;;6.35;;
44462;SDS011;30170;52.190;8.702;2023-03-12T04:05:43;9.85;;;5.78;;
44462;SDS011;30170;52.190;8.702;2023-03-12T04:08:11;14.15;;;7.88;;
44462;SDS011;30170;52.190;8.702;2023-03-12T04:10:39;15.10;;;8.13;;
44462;SDS011;30170;52.190;8.702;2023-03-12T04:13:07;16.48;;;9.15;;
44462;SDS011;30170;52.190;8.702;2023-03-12T04:15:34;15.13;;;9.30;;
44462;SDS011;30170;52.190;8.702;2023-03-12T04:18:01;14.45;;;9.75;;
44462;SDS011;30170;52.190;8.702;2023-03-12T04:20:28;15.68;;;8.73;;
44462;SDS011;30170;52.190;8.702;2023-03-12T04:22:56;16.27;;;10.50;;
44462;SDS011;30170;52.190;8.702;2023-03-12T04:25:23;21.38;;;9.38;;
44462;SDS011;30170;52.190;8.702;2023-03-12T04:27:50;15.73;;;9.77;;
44462;SDS011;30170;52.190;8.702;2023-03-12T04:30:18;22.42;;;9.77;;
44462;SDS011;30170;52.190;8.702;2023-03-12T04:32:45;13.68;;;8.48;;
44462;SDS011;30170;52.190;8.702;2023-03-12T04:35:12;16.27;;;9.35;;
44462;SDS011;30170;52.190;8.702;2023-03-12T04:37:40;16.83;;;8.65;;
44462;SDS011;30170;52.190;8.702;2023-03-12T04:40:07;15.25;;;9.35;;
44462;SDS011;30170;52.190;8.702;2023-03-12T04:42:35;15.35;;;9.45;;
44462;SDS011;30170;52.190;8.702;2023-03-12T04:45:03;13.90;;;8.55;;
44462;SDS011;30170;52.190;8.702;2023-03-12T04:47:31;18.67;;;10.55;;
44462;SDS011;30170;52.190;8.702;2023-03-12T04:49:59;18.35;;;11.07;;
44462;SDS011;30170;52.190;8.702;2023-03-12T04:52:27;18.02;;;10.50;;
44462;SDS011;30170;52.190;8.702;2023-03-12T04:54:54;17.15;;;11.30;;
44462;SDS011;30170;52.190;8.702;2023-03-12T04:57:21;18.00;;;10.80;;
44462;SDS011;30170;52.190;8.702;2023-03-12T04:59:48;18.10;;;10.98;;
44462;SDS011;30170;52.190;8.702;2023-03-12T05:02:16;15.77;;;9.27;;
44462;SDS011;30170;52.190;8.702;2023-03-12T05:04:43;18.45;;;10.10;;
44462;SDS011;30170;52.190;8.702;2023-03-12T05:07:10;16.25;;;10.00;;
44462;SDS011;30170;52.190;8.702;2023-03-12T05:09:38;16.33;;;8.98;;
44462;SDS011;30170;52.190;8.702;2023-03-12T05:12:05;14.20;;;9.10;;
44462;SDS011;30170;52.190;8.702;2023-03-12T05:14:32;19.23;;;8.95;;
44462;SDS011;30170;52.190;8.702;2023-03-12T05:16:59;14.50;;;9.57;;
44462;SDS011;30170;52.190;8.702;2023-03-12T05:19:27;14.10;;;8.80;;
44462;SDS011;30170;52.190;8.702;2023-03-12T05:21:54;15.65;;;9.98;;
44462;SDS011;30170;52.190;8.702;2023-03-12T05:24:21;13.52;;;9.15;;
44462;SDS011;30170;52.190;8.702;2023-03-12T05:26:48;13.50;;;9.32;;
44462;SDS011;30170;52.190;8.702;2023-03-12T05:29:16;16.92;;;9.90;;
44462;SDS011;30170;52.190;8.702;2023-03-12T05:31:43;14.13;;;9.27;;
44462;SDS011;30170;52.190;8.702;2023-03-12T05:34:11;14.93;;;9.75;;
44462;SDS011;30170;52.190;8.702;2023-03-12T05:36:38;15.73;;;10.18;;
44462;SDS011;30170;52.190;8.702;2023-03-12T05:39:06;18.60;;;11.35;;
44462;SDS011;30170;52.190;8.702;2023-03-12T05:41:33;13.95;;;10.43;;
44462;SDS011;30170;52.190;8.702;2023-03-12T05:44:00;17.20;;;10.60;;
44462;SDS011;30170;52.190;8.702;2023-03-12T05:46:27;15.35;;;10.02;;
44462;SDS011;30170;52.190;8.702;2023-03-12T05:48:55;15.57;;;9.88;;
44462;SDS011;30170;52.190;8.702;2023-03-12T05:51:22;18.30;;;10.48;;
44462;SDS011;30170;52.190;8.702;2023-03-12T05:53:49;14.85;;;9.80;;
44462;SDS011;30170;52.190;8.702;2023-03-12T05:56:17;16.00;;;10.40;;
44462;SDS011;30170;52.190;8.702;2023-03-12T05:58:46;20.13;;;10.68;;
44462;SDS011;30170;52.190;8.702;2023-03-12T06:01:19;18.58;;;10.93;;
44462;SDS011;30170;52.190;8.702;2023-03-12T06:03:46;14.73;;;9.52;;
44462;SDS011;30170;52.190;8.702;2023-03-12T06:06:14;16.00;;;10.23;;
44462;SDS011;30170;52.190;8.702;2023-03-12T06:08:41;16.83;;;9.27;;
44462;SDS011;30170;52.190;8.702;2023-03-12T06:11:09;19.35;;;11.25;;
44462;SDS011;30170;52.190;8.702;2023-03-12T06:13:36;14.80;;;9.65;;
44462;SDS011;30170;52.190;8.702;2023-03-12T06:16:05;17.77;;;10.32;;
44462;SDS011;30170;52.190;8.702;2023-03-12T06:18:33;17.55;;;10.23;;
44462;SDS011;30170;52.190;8.702;2023-03-12T06:21:08;18.42;;;10.68;;
44462;SDS011;30170;52.190;8.702;2023-03-12T06:23:35;16.23;;;9.95;;
44462;SDS011;30170;52.190;8.702;2023-03-12T06:26:03;15.02;;;9.80;;
44462;SDS011;30170;52.190;8.702;2023-03-12T06:28:30;14.52;;;8.88;;
44462;SDS011;30170;52.190;8.702;2023-03-12T06:30:57;16.42;;;9.45;;
44462;SDS011;30170;52.190;8.702;2023-03-12T06:33:24;12.15;;;7.75;;
44462;SDS011;30170;52.190;8.702;2023-03-12T06:35:52;17.42;;;8.48;;
44462;SDS011;30170;52.190;8.702;2023-03-12T06:38:20;15.82;;;9.07;;
44462;SDS011;30170;52.190;8.702;2023-03-12T06:40:55;12.13;;;6.03;;
44462;SDS011;30170;52.190;8.702;2023-03-12T06:43:23;12.02;;;6.60;;
44462;SDS011;30170;52.190;8.702;2023-03-12T06:45:51;18.85;;;9.38;;
44462;SDS011;30170;52.190;8.702;2023-03-12T06:48:18;14.32;;;9.40;;
44462;SDS011;30170;52.190;8.702;2023-03-12T06:50:45;17.10;;;10.65;;
44462;SDS011;30170;52.190;8.702;2023-03-12T06:53:12;16.58;;;9.48;;
44462;SDS011;30170;52.190;8.702;2023-03-12T06:55:40;13.65;;;9.57;;
44462;SDS011;30170;52.190;8.702;2023-03-12T06:58:07;16.35;;;9.20;;
44462;SDS011;30170;52.190;8.702;2023-03-12T07:00:34;15.75;;;8.27;;
44462;SDS011;30170;52.190;8.702;2023-03-12T07:03:02;16.98;;;8.68;;
44462;SDS011;30170;52.190;8.702;2023-03-12T07:05:29;14.38;;;8.35;;
44462;SDS011;30170;52.190;8.702;2023-03-12T07:07:56;8.75;;;6.22;;
44462;SDS011;30170;52.190;8.702;2023-03-12T07:10:23;9.45;;;6.00;;
44462;SDS011;30170;52.190;8.702;2023-03-12T07:12:53;11.15;;;8.00;;
44462;SDS011;30170;52.190;8.702;2023-03-12T07:15:20;9.40;;;7.60;;
44462;SDS011;30170;52.190;8.702;2023-03-12T07:17:48;13.02;;;9.18;;
44462;SDS011;30170;52.190;8.702;2023-03-12T07:20:15;19.83;;;13.48;;
44462;SDS011;30170;52.190;8.702;2023-03-12T07:22:42;16.83;;;12.32;;
44462;SDS011;30170;52.190;8.702;2023-03-12T07:25:10;12.43;;;9.23;;
44462;SDS011;30170;52.190;8.702;2023-03-12T07:27:37;88.65;;;44.35;;
44462;SDS011;30170;52.190;8.702;2023-03-12T07:30:04;33.60;;;17.73;;
44462;SDS011;30170;52.190;8.702;2023-03-12T07:32:32;16.20;;;8.85;;
44462;SDS011;30170;52.190;8.702;2023-03-12T07:35:02;15.77;;;9.02;;
44462;SDS011;30170;52.190;8.702;2023-03-12T07:37:30;9.90;;;6.70;;
44462;SDS011;30170;52.190;8.702;2023-03-12T07:39:57;10.30;;;5.00;;
44462;SDS011;30170;52.190;8.702;2023-03-12T07:42:24;10.48;;;5.20;;
44462;SDS011;30170;52.190;8.702;2023-03-12T07:44:52;10.55;;;4.88;;
44462;SDS011;30170;52.190;8.702;2023-03-12T07:47:19;7.47;;;4.05;;
44462;SDS011;30170;52.190;8.702;2023-03-12T07:49:50;6.13;;;3.80;;
44462;SDS011;30170;52.190;8.702;2023-03-12T07:52:17;4.07;;;3.17;;
44462;SDS011;30170;52.190;8.702;2023-03-12T07:54:45;5.05;;;3.33;;
44462;SDS011;30170;52.190;8.702;2023-03-12T07:57:13;6.72;;;3.10;;
44462;SDS011;30170;52.190;8.702;2023-03-12T07:59:40;6.95;;;3.00;;
44462;SDS011;30170;52.190;8.702;2023-03-12T08:02:08;6.70;;;3.40;;
44462;SDS011;30170;52.190;8.702;2023-03-12T08:04:36;10.18;;;2.85;;
44462;SDS011;30170;52.190;8.702;2023-03-12T08:07:03;5.45;;;3.22;;
44462;SDS011;30170;52.190;8.702;2023-03-12T08:09:34;6.22;;;2.92;;
44462;SDS011;30170;52.190;8.702;2023-03-12T08:12:05;5.05;;;2.72;;
44462;SDS011;30170;52.190;8.702;2023-03-12T08:14:32;5.88;;;3.40;;
44462;SDS011;30170;52.190;8.702;2023-03-12T08:17:01;9.32;;;3.50;;
44462;SDS011;30170;52.190;8.702;2023-03-12T08:19:29;5.82;;;2.92;;
44462;SDS011;30170;52.190;8.702;2023-03-12T08:21:56;4.97;;;2.75;;
44462;SDS011;30170;52.190;8.702;2023-03-12T08:24:24;6.60;;;2.90;;
44462;SDS011;30170;52.190;8.702;2023-03-12T08:26:52;4.03;;;2.75;;
44462;SDS011;30170;52.190;8.702;2023-03-12T08:29:19;5.82;;;2.58;;
44462;SDS011;30170;52.190;8.702;2023-03-12T08:31:47;7.57;;;2.53;;
44462;SDS011;30170;52.190;8.702;2023-03-12T08:34:30;4.75;;;2.72;;
44462;SDS011;30170;52.190;8.702;2023-03-12T08:36:58;8.60;;;3.08;;
44462;SDS011;30170;52.190;8.702;2023-03-12T08:39:27;4.97;;;2.92;;
44462;SDS011;30170;52.190;8.702;2023-03-12T08:41:58;4.72;;;2.60;;
44462;SDS011;30170;52.190;8.702;2023-03-12T08:44:28;6.55;;;3.05;;
44462;SDS011;30170;52.190;8.702;2023-03-12T08:46:58;6.32;;;2.90;;
44462;SDS011;30170;52.190;8.702;2023-03-12T08:49:26;4.95;;;2.92;;
44462;SDS011;30170;52.190;8.702;2023-03-12T08:51:55;8.15;;;3.72;;
44462;SDS011;30170;52.190;8.702;2023-03-12T08:54:23;4.45;;;2.78;;
44462;SDS011;30170;52.190;8.702;2023-03-12T08:56:51;5.47;;;2.80;;
44462;SDS011;30170;52.190;8.702;2023-03-12T08:59:19;6.70;;;3.08;;
44462;SDS011;30170;52.190;8.702;2023-03-12T09:01:47;6.22;;;3.22;;
44462;SDS011;30170;52.190;8.702;2023-03-12T09:04:15;4.13;;;2.67;;
44462;SDS011;30170;52.190;8.702;2023-03-12T09:06:43;7.53;;;3.60;;
44462;SDS011;30170;52.190;8.702;2023-03-12T09:09:14;5.90;;;3.50;;
44462;SDS011;30170;52.190;8.702;2023-03-12T09:11:42;6.22;;;3.53;;
44462;SDS011;30170;52.190;8.702;2023-03-12T09:14:11;5.40;;;3.08;;
44462;SDS011;30170;52.190;8.702;2023-03-12T09:16:59;6.10;;;3.30;;
44462;SDS011;30170;52.190;8.702;2023-03-12T09:19:27;4.88;;;3.15;;
44462;SDS011;30170;52.190;8.702;2023-03-12T09:21:55;4.70;;;3.33;;
44462;SDS011;30170;52.190;8.702;2023-03-12T09:24:23;5.43;;;3.28;;
44462;SDS011;30170;52.190;8.702;2023-03-12T09:26:50;4.95;;;3.22;;
44462;SDS011;30170;52.190;8.702;2023-03-12T09:29:20;8.43;;;3.15;;
44462;SDS011;30170;52.190;8.702;2023-03-12T09:31:48;8.63;;;3.10;;
44462;SDS011;30170;52.190;8.702;2023-03-12T09:34:16;7.20;;;2.50;;
44462;SDS011;30170;52.190;8.702;2023-03-12T09:36:44;5.50;;;3.30;;
44462;SDS011;30170;52.190;8.702;2023-03-12T09:39:11;6.00;;;3.10;;
44462;SDS011;30170;52.190;8.702;2023-03-12T09:41:44;4.88;;;3.03;;
44462;SDS011;30170;52.190;8.702;2023-03-12T09:46:43;5.30;;;3.50;;
44462;SDS011;30170;52.190;8.702;2023-03-12T09:49:16;6.00;;;3.33;;
44462;SDS011;30170;52.190;8.702;2023-03-12T09:51:44;8.00;;;4.03;;
44462;SDS011;30170;52.190;8.702;2023-03-12T09:54:20;7.30;;;4.15;;
44462;SDS011;30170;52.190;8.702;2023-03-12T09:56:50;9.65;;;4.45;;
44462;SDS011;30170;52.190;8.702;2023-03-12T09:59:18;6.47;;;4.38;;
44462;SDS011;30170;52.190;8.702;2023-03-12T10:01:49;6.78;;;4.72;;
44462;SDS011;30170;52.190;8.702;2023-03-12T10:07:34;7.32;;;5.22;;
44462;SDS011;30170;52.190;8.702;2023-03-12T10:17:46;8.40;;;5.20;;
44462;SDS011;30170;52.190;8.702;2023-03-12T10:28:14;10.43;;;5.90;;
44462;SDS011;30170;52.190;8.702;2023-03-12T10:30:45;11.48;;;4.97;;
44462;SDS011;30170;52.190;8.702;2023-03-12T10:33:14;11.02;;;5.85;;
44462;SDS011;30170;52.190;8.702;2023-03-12T10:35:43;7.38;;;5.07;;
44462;SDS011;30170;52.190;8.702;2023-03-12T10:38:20;10.88;;;5.00;;
44462;SDS011;30170;52.190;8.702;2023-03-12T10:40:48;10.82;;;5.55;;
44462;SDS011;30170;52.190;8.702;2023-03-12T10:43:15;8.52;;;5.72;;
44462;SDS011;30170;52.190;8.702;2023-03-12T10:45:53;11.02;;;5.45;;
44462;SDS011;30170;52.190;8.702;2023-03-12T10:48:24;9.52;;;6.03;;
44462;SDS011;30170;52.190;8.702;2023-03-12T10:51:05;8.52;;;4.65;;
44462;SDS011;30170;52.190;8.702;2023-03-12T10:53:40;6.95;;;4.60;;
44462;SDS011;30170;52.190;8.702;2023-03-12T10:56:11;9.07;;;5.00;;
44462;SDS011;30170;52.190;8.702;2023-03-12T11:01:27;10.23;;;6.07;;
44462;SDS011;30170;52.190;8.702;2023-03-12T11:04:07;10.60;;;5.78;;
44462;SDS011;30170;52.190;8.702;2023-03-12T11:06:35;10.10;;;6.30;;
44462;SDS011;30170;52.190;8.702;2023-03-12T11:09:06;14.02;;;7.80;;
44462;SDS011;30170;52.190;8.702;2023-03-12T11:11:43;14.15;;;8.90;;
44462;SDS011;30170;52.190;8.702;2023-03-12T11:14:19;16.75;;;8.93;;
44462;SDS011;30170;52.190;8.702;2023-03-12T11:16:48;14.88;;;10.27;;
44462;SDS011;30170;52.190;8.702;2023-03-12T11:19:31;19.05;;;10.55;;
44462;SDS011;30170;52.190;8.702;2023-03-12T11:22:05;18.88;;;11.30;;
44462;SDS011;30170;52.190;8.702;2023-03-12T11:24:34;17.67;;;10.73;;
44462;SDS011;30170;52.190;8.702;2023-03-12T11:29:48;17.05;;;10.25;;
44462;SDS011;30170;52.190;8.702;2023-03-12T11:32:23;18.25;;;11.57;;
44462;SDS011;30170;52.190;8.702;2023-03-12T11:34:54;18.13;;;11.18;;
44462;SDS011;30170;52.190;8.702;2023-03-12T11:47:56;21.27;;;13.02;;
44462;SDS011;30170;52.190;8.702;2023-03-12T11:51:26;14.43;;;9.20;;
44462;SDS011;30170;52.190;8.702;2023-03-12T11:58:40;18.02;;;11.25;;
44462;SDS011;30170;52.190;8.702;2023-03-12T12:04:09;17.95;;;11.68;;
44462;SDS011;30170;52.190;8.702;2023-03-12T12:17:21;17.77;;;10.10;;
44462;SDS011;30170;52.190;8.702;2023-03-12T12:27:35;23.67;;;12.88;;
44462;SDS011;30170;52.190;8.702;2023-03-12T12:32:47;20.00;;;11.77;;
44462;SDS011;30170;52.190;8.702;2023-03-12T12:35:28;18.02;;;11.13;;
44462;SDS011;30170;52.190;8.702;2023-03-12T12:37:57;17.98;;;10.35;;
44462;SDS011;30170;52.190;8.702;2023-03-12T12:40:28;17.52;;;11.10;;
44462;SDS011;30170;52.190;8.702;2023-03-12T12:43:05;21.85;;;12.55;;
44462;SDS011;30170;52.190;8.702;2023-03-12T12:45:36;15.77;;;11.10;;
44462;SDS011;30170;52.190;8.702;2023-03-12T12:48:17;16.60;;;10.55;;
44462;SDS011;30170;52.190;8.702;2023-03-12T12:50:44;18.33;;;10.75;;
44462;SDS011;30170;52.190;8.702;2023-03-12T12:53:21;19.63;;;11.80;;
44462;SDS011;30170;52.190;8.702;2023-03-12T12:58:31;20.02;;;12.85;;
44462;SDS011;30170;52.190;8.702;2023-03-12T13:01:00;22.00;;;12.10;;
44462;SDS011;30170;52.190;8.702;2023-03-12T13:03:29;19.25;;;11.20;;
44462;SDS011;30170;52.190;8.702;2023-03-12T13:05:58;19.65;;;11.25;;
44462;SDS011;30170;52.190;8.702;2023-03-12T13:10:57;19.13;;;13.48;;
44462;SDS011;30170;52.190;8.702;2023-03-12T13:13:47;21.13;;;12.52;;
44462;SDS011;30170;52.190;8.702;2023-03-12T13:16:26;19.90;;;12.57;;
44462;SDS011;30170;52.190;8.702;2023-03-12T13:18:54;21.42;;;13.18;;
44462;SDS011;30170;52.190;8.702;2023-03-12T13:21:23;24.92;;;13.88;;
44462;SDS011;30170;52.190;8.702;2023-03-12T13:24:04;21.00;;;13.20;;
44462;SDS011;30170;52.190;8.702;2023-03-12T13:29:22;22.58;;;13.80;;
44462;SDS011;30170;52.190;8.702;2023-03-12T13:32:05;28.65;;;14.15;;
44462;SDS011;30170;52.190;8.702;2023-03-12T13:34:42;24.17;;;15.13;;
44462;SDS011;30170;52.190;8.702;2023-03-12T13:37:18;25.27;;;15.63;;
44462;SDS011;30170;52.190;8.702;2023-03-12T13:39:46;25.50;;;15.52;;
44462;SDS011;30170;52.190;8.702;2023-03-12T13:44:51;26.50;;;16.40;;
44462;SDS011;30170;52.190;8.702;2023-03-12T13:47:20;29.73;;;16.88;;
44462;SDS011;30170;52.190;8.702;2023-03-12T13:52:25;26.65;;;16.48;;
44462;SDS011;30170;52.190;8.702;2023-03-12T13:57:38;31.90;;;17.75;;
44462;SDS011;30170;52.190;8.702;2023-03-12T14:00:49;33.40;;;17.55;;
44462;SDS011;30170;52.190;8.702;2023-03-12T14:03:02;32.15;;;18.63;;
44462;SDS011;30170;52.190;8.702;2023-03-12T14:05:31;32.78;;;18.15;;
44462;SDS011;30170;52.190;8.702;2023-03-12T14:08:15;29.55;;;17.58;;
44462;SDS011;30170;52.190;8.702;2023-03-12T14:15:56;35.22;;;19.98;;
44462;SDS011;30170;52.190;8.702;2023-03-12T14:18:27;31.70;;;18.90;;
44462;SDS011;30170;52.190;8.702;2023-03-12T14:20:57;43.22;;;22.58;;
44462;SDS011;30170;52.190;8.702;2023-03-12T14:23:26;41.75;;;24.48;;
44462;SDS011;30170;52.190;8.702;2023-03-12T14:25:56;38.75;;;22.42;;
44462;SDS011;30170;52.190;8.702;2023-03-12T14:28:25;47.45;;;23.98;;
44462;SDS011;30170;52.190;8.702;2023-03-12T14:30:59;51.05;;;26.55;;
44462;SDS011;30170;52.190;8.702;2023-03-12T14:33:33;56.45;;;29.45;;
44462;SDS011;30170;52.190;8.702;2023-03-12T14:36:05;56.70;;;27.17;;
44462;SDS011;30170;52.190;8.702;2023-03-12T14:43:33;63.67;;;32.15;;
44462;SDS011;30170;52.190;8.702;2023-03-12T14:46:02;70.50;;;34.10;;
44462;SDS011;30170;52.190;8.702;2023-03-12T14:48:31;68.25;;;31.73;;
44462;SDS011;30170;52.190;8.702;2023-03-12T14:50:59;54.30;;;29.20;;
44462;SDS011;30170;52.190;8.702;2023-03-12T14:53:29;61.25;;;30.05;;
44462;SDS011;30170;52.190;8.702;2023-03-12T14:58:56;59.85;;;30.85;;
44462;SDS011;30170;52.190;8.702;2023-03-12T15:01:25;66.93;;;32.13;;
44462;SDS011;30170;52.190;8.702;2023-03-12T15:03:54;69.45;;;31.35;;
44462;SDS011;30170;52.190;8.702;2023-03-12T15:06:33;66.85;;;31.83;;
44462;SDS011;30170;52.190;8.702;2023-03-12T15:09:03;63.85;;;30.98;;
44462;SDS011;30170;52.190;8.702;2023-03-12T15:11:34;61.38;;;31.33;;
44462;SDS011;30170;52.190;8.702;2023-03-12T15:14:07;64.32;;;31.15;;
44462;SDS011;30170;52.190;8.702;2023-03-12T15:16:35;67.40;;;30.35;;
44462;SDS011;30170;52.190;8.702;2023-03-12T15:19:02;66.60;;;31.42;;
44462;SDS011;30170;52.190;8.702;2023-03-12T15:21:31;57.08;;;28.85;;
44462;SDS011;30170;52.190;8.702;2023-03-12T15:23:58;64.85;;;32.45;;
44462;SDS011;30170;52.190;8.702;2023-03-12T15:26:27;66.55;;;32.10;;
44462;SDS011;30170;52.190;8.702;2023-03-12T15:29:00;67.63;;;32.78;;
44462;SDS011;30170;52.190;8.702;2023-03-12T15:31:44;68.20;;;33.58;;
44462;SDS011;30170;52.190;8.702;2023-03-12T15:34:13;63.95;;;31.83;;
44462;SDS011;30170;52.190;8.702;2023-03-12T15:36:45;57.55;;;31.25;;
44462;SDS011;30170;52.190;8.702;2023-03-12T15:39:23;66.30;;;31.45;;
44462;SDS011;30170;52.190;8.702;2023-03-12T15:41:52;63.55;;;31.73;;
44462;SDS011;30170;52.190;8.702;2023-03-12T15:44:23;66.05;;;32.95;;
44462;SDS011;30170;52.190;8.702;2023-03-12T15:46:52;64.43;;;32.20;;
44462;SDS011;30170;52.190;8.702;2023-03-12T15:49:30;61.53;;;31.95;;
44462;SDS011;30170;52.190;8.702;2023-03-12T15:51:59;67.28;;;32.88;;
44462;SDS011;30170;52.190;8.702;2023-03-12T15:54:28;70.13;;;32.63;;
44462;SDS011;30170;52.190;8.702;2023-03-12T15:57:17;67.78;;;32.28;;
44462;SDS011;30170;52.190;8.702;2023-03-12T15:59:44;70.60;;;31.92;;
44462;SDS011;30170;52.190;8.702;2023-03-12T16:02:32;71.57;;;34.03;;
44462;SDS011;30170;52.190;8.702;2023-03-12T16:05:00;71.32;;;36.40;;
44462;SDS011;30170;52.190;8.702;2023-03-12T16:07:27;76.43;;;35.63;;
44462;SDS011;30170;52.190;8.702;2023-03-12T16:09:55;66.93;;;32.30;;
44462;SDS011;30170;52.190;8.702;2023-03-12T16:12:22;65.80;;;30.42;;
44462;SDS011;30170;52.190;8.702;2023-03-12T16:14:49;61.40;;;28.52;;
44462;SDS011;30170;52.190;8.702;2023-03-12T16:17:16;64.18;;;30.65;;
44462;SDS011;30170;52.190;8.702;2023-03-12T16:19:44;57.00;;;29.25;;
44462;SDS011;30170;52.190;8.702;2023-03-12T16:22:12;58.55;;;28.30;;
44462;SDS011;30170;52.190;8.702;2023-03-12T16:24:39;61.13;;;29.33;;
44462;SDS011;30170;52.190;8.702;2023-03-12T16:27:09;62.67;;;31.70;;